Airfield :
LOGIN :

Register | Disclaimer

   EN    FR    IT 

 










Legend :    VFR   Marginal VFR   IFR   Intensive IFR   Very Intensive IFR
Visi :
Ceiling :
>= 8 km
>= 3000ft
5 to 8 km
1000 to 3000 ft
1500m to 5 km
500 to 1000 ft
800 to 1500m
200 to 500 ft
< 800m
< 200 ft
Symbols :   Thunderstorms  Fog  Heavy snow  Heavy precipitations  Wind > 20 kt
SIGMETs :     Misc.  Thunderstorms  Icing  Turbulence  Mountain Waves  Volcanic Ashes







- Airport Elevation : 436 ft
- IATA code : BTS


LZIB - Bratislava

CURRENT METAR :
  • 201030Z 03009KT CAVOK 23/07 Q1025 NOSIG

EXPIRED METARs :
  • 201000Z 05008KT CAVOK 22/05 Q1026 NOSIG
  • 200930Z 04008KT 010V070 CAVOK 22/06 Q1026 NOSIG
  • 200900Z 05007KT CAVOK 22/07 Q1026 NOSIG
  • 200830Z 02008KT 360V060 CAVOK 21/08 Q1026 NOSIG
  • 200800Z 04009KT CAVOK 20/09 Q1026 NOSIG

TAF TAF LZIB
Valid from the 20 at 06:00 until the 21 at 06:00 UTC


200500Z 2006/2106 30005KT CAVOK
BECMG 2006/2008 04008KT
BECMG 2014/2016 27005KT
No reported NOTAMs for that airfield.



MET'MAP, your aeronautical weather chart ! - Copyright ORBIFLY December 2007 - Disclaimer

ORBIFLY MET'MAP TEAM :

Programming & Development : Alexandra Zaïnal
Concept & Development : Baudouin d'Aumeries
Co-Development & Prog : Marc-Olivier Méhu
Technical & hardware support : Manuel Goepfert

Contact : metmap@orbifly.com




SOURCES & CREDITS :

   NOAA